createdAt,value
2023-01-28T00:01:42.142Z,2.30
2023-01-28T00:04:14.440Z,2.30
2023-01-28T00:06:41.677Z,2.30
2023-01-28T00:09:08.583Z,2.30
2023-01-28T00:11:38.171Z,2.30
2023-01-28T00:14:05.188Z,2.30
2023-01-28T00:16:32.141Z,2.30
2023-01-28T00:19:04.050Z,2.30
2023-01-28T00:21:31.178Z,2.30
2023-01-28T00:23:58.143Z,2.30
2023-01-28T00:26:29.701Z,2.20
2023-01-28T00:28:56.549Z,2.20
2023-01-28T00:31:28.022Z,2.20
2023-01-28T00:33:55.944Z,2.20
2023-01-28T00:36:24.832Z,2.10
2023-01-28T00:38:53.387Z,2.10
2023-01-28T00:41:24.912Z,2.10
2023-01-28T00:43:52.944Z,2.10
2023-01-28T00:46:21.229Z,2.10
2023-01-28T00:48:48.810Z,2.10
2023-01-28T00:51:18.306Z,2.10
2023-01-28T00:53:45.167Z,2.00
2023-01-28T00:56:17.845Z,2.00
2023-01-28T00:58:48.282Z,1.90
2023-01-28T01:01:22.339Z,1.90
2023-01-28T01:04:02.743Z,1.90
2023-01-28T01:06:36.089Z,2.00
2023-01-28T01:09:08.106Z,2.00
2023-01-28T01:11:35.777Z,2.00
2023-01-28T01:14:05.159Z,2.00
2023-01-28T01:16:33.466Z,2.10
2023-01-28T01:19:00.921Z,2.00
2023-01-28T01:21:29.590Z,2.00
2023-01-28T01:23:56.508Z,2.00
2023-01-28T01:26:28.200Z,1.90
2023-01-28T01:28:57.702Z,1.90
2023-01-28T01:31:27.912Z,2.00
2023-01-28T01:34:00.581Z,2.00
2023-01-28T01:36:27.461Z,2.00
2023-01-28T01:38:55.413Z,2.00
2023-01-28T01:41:32.166Z,1.90
2023-01-28T01:44:01.628Z,1.90
2023-01-28T01:46:43.977Z,1.90
2023-01-28T01:49:27.144Z,2.00
2023-01-28T01:52:13.322Z,2.00
2023-01-28T01:54:47.009Z,2.00
2023-01-28T01:57:18.861Z,2.10
2023-01-28T01:59:47.311Z,2.10
2023-01-28T02:02:14.491Z,2.10
2023-01-28T02:04:45.127Z,2.10
2023-01-28T02:07:18.625Z,2.20
2023-01-28T02:09:47.645Z,2.20
2023-01-28T02:12:19.167Z,2.20
2023-01-28T02:15:00.111Z,2.20
2023-01-28T02:17:27.223Z,2.20
2023-01-28T02:20:07.812Z,2.20
2023-01-28T02:23:01.595Z,2.20
2023-01-28T02:26:13.285Z,2.20
2023-01-28T02:28:54.909Z,2.20
2023-01-28T02:31:39.162Z,2.20
2023-01-28T02:34:46.023Z,2.20
2023-01-28T02:37:24.780Z,2.30
2023-01-28T02:40:11.071Z,2.20
2023-01-28T02:42:40.034Z,2.30
2023-01-28T02:45:49.135Z,2.30
2023-01-28T02:48:16.643Z,2.30
2023-01-28T02:51:09.244Z,2.30
2023-01-28T02:53:45.492Z,2.30
2023-01-28T02:56:15.353Z,2.30
2023-01-28T02:58:55.765Z,2.30
2023-01-28T03:01:39.215Z,2.30
2023-01-28T03:04:09.115Z,2.30
2023-01-28T03:06:41.800Z,2.40
2023-01-28T03:09:24.219Z,2.40
2023-01-28T03:12:28.597Z,2.40
2023-01-28T03:15:16.832Z,2.40
2023-01-28T03:18:15.228Z,2.40
2023-01-28T03:21:13.813Z,2.30
2023-01-28T03:24:27.025Z,2.40
2023-01-28T03:27:40.908Z,2.40
2023-01-28T03:31:13.141Z,2.40
2023-01-28T03:34:06.889Z,2.40
2023-01-28T03:36:50.489Z,2.40
2023-01-28T03:39:50.144Z,2.40
2023-01-28T03:42:19.182Z,2.40
2023-01-28T03:44:59.008Z,2.30
2023-01-28T03:47:31.064Z,2.30
2023-01-28T03:50:00.324Z,2.30
2023-01-28T03:52:32.612Z,2.30
2023-01-28T03:55:18.186Z,2.30
2023-01-28T03:57:45.295Z,2.30
2023-01-28T04:00:13.858Z,2.30
2023-01-28T04:02:43.764Z,2.30
2023-01-28T04:05:19.765Z,2.30
2023-01-28T04:07:52.237Z,2.30
2023-01-28T04:10:48.648Z,2.20
2023-01-28T04:13:26.751Z,2.20
2023-01-28T04:15:53.897Z,2.10
2023-01-28T04:18:27.317Z,2.10
2023-01-28T04:20:57.240Z,2.10
2023-01-28T04:23:24.122Z,2.10
2023-01-28T04:25:51.173Z,2.10
2023-01-28T04:28:18.538Z,2.10
2023-01-28T04:30:45.563Z,2.10
2023-01-28T04:33:46.972Z,2.20
2023-01-28T04:36:23.426Z,2.20
2023-01-28T04:39:06.590Z,2.20
2023-01-28T04:41:38.348Z,2.20
2023-01-28T04:44:28.108Z,2.20
2023-01-28T04:47:17.473Z,2.20
2023-01-28T04:50:04.980Z,2.20
2023-01-28T04:52:54.668Z,2.20
2023-01-28T04:55:57.226Z,2.20
2023-01-28T04:58:25.158Z,2.10
2023-01-28T05:00:59.723Z,2.20
2023-01-28T05:03:27.155Z,2.20
2023-01-28T05:05:54.875Z,2.20
2023-01-28T05:08:46.281Z,2.20
2023-01-28T05:11:14.765Z,2.30
2023-01-28T05:13:44.622Z,2.30
2023-01-28T05:16:15.820Z,2.30
2023-01-28T05:18:44.755Z,2.30
2023-01-28T05:21:15.111Z,2.30
2023-01-28T05:23:43.717Z,2.30
2023-01-28T05:26:13.311Z,2.30
2023-01-28T05:28:40.200Z,2.40
2023-01-28T05:31:09.716Z,2.40
2023-01-28T05:33:36.848Z,2.40
2023-01-28T05:36:08.663Z,2.40
2023-01-28T05:38:37.994Z,2.40
2023-01-28T05:41:05.030Z,2.40
2023-01-28T05:43:35.472Z,2.40
2023-01-28T05:46:30.715Z,2.40
2023-01-28T05:49:00.338Z,2.30
2023-01-28T05:51:45.484Z,2.30
2023-01-28T05:54:18.192Z,2.30
2023-01-28T05:56:47.360Z,2.30
2023-01-28T05:59:14.546Z,2.30
2023-01-28T06:01:43.451Z,2.40
2023-01-28T06:04:12.725Z,2.40
2023-01-28T06:06:42.190Z,2.40
2023-01-28T06:09:09.092Z,2.40
2023-01-28T06:11:36.103Z,2.30
2023-01-28T06:14:05.931Z,2.30
2023-01-28T06:17:04.112Z,2.30
2023-01-28T06:20:04.179Z,2.40
2023-01-28T06:22:32.369Z,2.40
2023-01-28T06:25:02.993Z,2.40
2023-01-28T06:27:30.002Z,2.40
2023-01-28T06:29:56.816Z,2.40
2023-01-28T06:32:27.040Z,2.40
2023-01-28T06:34:54.102Z,2.40
2023-01-28T06:37:25.983Z,2.40
2023-01-28T06:39:55.215Z,2.40
2023-01-28T06:42:22.310Z,2.40
2023-01-28T06:44:49.125Z,2.40
2023-01-28T06:47:16.048Z,2.40
2023-01-28T06:49:42.980Z,2.40
2023-01-28T06:52:09.892Z,2.40
2023-01-28T06:54:36.805Z,2.40
2023-01-28T06:57:06.286Z,2.40
2023-01-28T06:59:35.546Z,2.40
2023-01-28T07:02:02.554Z,2.40
2023-01-28T07:04:29.696Z,2.40
2023-01-28T07:06:56.473Z,2.40
2023-01-28T07:09:23.330Z,2.40
2023-01-28T07:11:52.328Z,2.50
2023-01-28T07:14:19.181Z,2.40
2023-01-28T07:16:46.021Z,2.40
2023-01-28T07:19:12.935Z,2.40
2023-01-28T07:21:39.937Z,2.40
2023-01-28T07:24:07.059Z,2.40
2023-01-28T07:26:33.909Z,2.40
2023-01-28T07:29:00.767Z,2.40
2023-01-28T07:31:27.765Z,2.40
2023-01-28T07:33:54.697Z,2.50
2023-01-28T07:36:21.481Z,2.50
2023-01-28T07:38:48.371Z,2.50
2023-01-28T07:41:17.577Z,2.50
2023-01-28T07:43:44.577Z,2.50
2023-01-28T07:46:13.003Z,2.50
2023-01-28T07:48:42.047Z,2.50
2023-01-28T07:51:08.916Z,2.60
2023-01-28T07:53:36.410Z,2.60
2023-01-28T07:56:04.774Z,2.70
2023-01-28T07:58:34.543Z,2.70
2023-01-28T08:01:02.146Z,2.70
2023-01-28T08:03:29.320Z,2.70
2023-01-28T08:05:58.606Z,2.70
2023-01-28T08:08:27.251Z,2.70
2023-01-28T08:10:54.489Z,2.70
2023-01-28T08:13:21.415Z,2.70
2023-01-28T08:15:48.394Z,2.70
2023-01-28T08:18:16.758Z,2.70
2023-01-28T08:20:46.234Z,2.70
2023-01-28T08:23:16.038Z,2.70
2023-01-28T08:25:47.244Z,2.70
2023-01-28T08:28:15.699Z,2.80
2023-01-28T08:30:45.317Z,2.70
2023-01-28T08:33:14.578Z,2.70
2023-01-28T08:35:41.621Z,2.80
2023-01-28T08:38:11.868Z,2.80
2023-01-28T08:40:39.184Z,2.70
2023-01-28T08:43:06.934Z,2.80
2023-01-28T08:45:33.850Z,2.70
2023-01-28T08:48:03.905Z,2.80
2023-01-28T08:50:33.571Z,2.70
2023-01-28T08:53:02.720Z,2.80
2023-01-28T08:55:33.029Z,2.80
2023-01-28T08:58:06.936Z,2.80
2023-01-28T09:00:38.899Z,2.90
2023-01-28T09:03:06.584Z,2.90
2023-01-28T09:05:38.269Z,2.90
2023-01-28T09:08:07.602Z,2.90
2023-01-28T09:10:34.999Z,2.90
2023-01-28T09:13:10.325Z,2.90
2023-01-28T09:15:37.794Z,2.90
2023-01-28T09:18:05.500Z,2.90
2023-01-28T09:20:35.083Z,2.90
2023-01-28T09:23:02.666Z,3.00
2023-01-28T09:25:30.195Z,3.00
2023-01-28T09:28:00.833Z,3.00
2023-01-28T09:30:28.504Z,3.00
2023-01-28T09:32:56.661Z,2.90
2023-01-28T09:35:23.944Z,2.90
2023-01-28T09:37:52.022Z,3.00
2023-01-28T09:40:27.323Z,3.00
2023-01-28T09:43:31.662Z,3.00
2023-01-28T09:46:00.927Z,3.00
2023-01-28T09:48:38.501Z,3.10
2023-01-28T09:51:10.377Z,3.10
2023-01-28T09:53:43.415Z,3.10
2023-01-28T09:56:15.972Z,3.20
2023-01-28T09:58:45.735Z,3.20
2023-01-28T10:01:24.073Z,3.10
2023-01-28T10:03:59.406Z,3.20
2023-01-28T10:06:30.503Z,3.20
2023-01-28T10:09:35.618Z,3.20
2023-01-28T10:12:32.668Z,3.20
2023-01-28T10:15:45.535Z,3.20
2023-01-28T10:18:21.636Z,3.20
2023-01-28T10:20:55.104Z,3.20
2023-01-28T10:23:48.910Z,3.30
2023-01-28T10:26:36.958Z,3.30
2023-01-28T10:29:19.591Z,3.40
2023-01-28T10:32:18.770Z,3.40
2023-01-28T10:34:45.926Z,3.40
2023-01-28T10:37:16.755Z,3.40
2023-01-28T10:39:48.000Z,3.40
2023-01-28T10:42:32.823Z,3.40
2023-01-28T10:45:08.857Z,3.50
2023-01-28T10:47:54.426Z,3.40
2023-01-28T10:50:25.149Z,3.50
2023-01-28T10:52:57.851Z,3.40
2023-01-28T10:55:57.846Z,3.50
2023-01-28T10:58:27.529Z,3.40
2023-01-28T11:01:01.298Z,3.40
2023-01-28T11:03:32.112Z,3.40
2023-01-28T11:05:59.505Z,3.50
2023-01-28T11:08:28.879Z,3.50
2023-01-28T11:10:58.490Z,3.50
2023-01-28T11:13:28.231Z,3.50
2023-01-28T11:16:20.082Z,3.60
2023-01-28T11:18:56.405Z,3.60
2023-01-28T11:21:28.655Z,3.60
2023-01-28T11:24:05.756Z,3.60
2023-01-28T11:26:36.585Z,3.60
2023-01-28T11:29:04.223Z,3.60
2023-01-28T11:31:42.095Z,3.70
2023-01-28T11:34:13.179Z,3.70
2023-01-28T11:36:51.367Z,3.70
2023-01-28T11:39:27.795Z,3.80
2023-01-28T11:41:55.508Z,3.80
2023-01-28T11:44:25.173Z,3.90
2023-01-28T11:47:04.557Z,3.90
2023-01-28T11:49:37.267Z,3.80
2023-01-28T11:52:19.963Z,3.80
2023-01-28T11:55:24.779Z,3.80
2023-01-28T11:57:57.726Z,3.80
2023-01-28T12:00:46.870Z,3.80
2023-01-28T12:03:29.299Z,3.90
2023-01-28T12:06:11.946Z,3.90
2023-01-28T12:09:10.956Z,3.90
2023-01-28T12:12:41.666Z,3.90
2023-01-28T12:15:57.333Z,3.90
2023-01-28T12:18:27.105Z,3.90
2023-01-28T12:21:08.371Z,3.90
2023-01-28T12:23:35.540Z,3.90
2023-01-28T12:26:20.174Z,3.90
2023-01-28T12:29:08.602Z,3.90
2023-01-28T12:31:54.479Z,3.90
2023-01-28T12:34:35.714Z,3.80
2023-01-28T12:37:11.594Z,3.80
2023-01-28T12:39:54.878Z,3.80
2023-01-28T12:42:45.455Z,3.80
2023-01-28T12:45:17.742Z,3.80
2023-01-28T12:47:55.826Z,3.80
2023-01-28T12:51:09.422Z,3.70
2023-01-28T12:53:39.284Z,3.70
2023-01-28T12:56:16.818Z,3.70
2023-01-28T12:58:54.289Z,3.70
2023-01-28T13:01:28.343Z,3.70
2023-01-28T13:04:14.560Z,3.70
2023-01-28T13:06:59.012Z,3.70
2023-01-28T13:09:27.104Z,3.60
2023-01-28T13:11:58.588Z,3.60
2023-01-28T13:14:31.037Z,3.70
2023-01-28T13:17:10.329Z,3.70
2023-01-28T13:19:42.074Z,3.60
2023-01-28T13:22:28.817Z,3.70
2023-01-28T13:24:59.857Z,3.60
2023-01-28T13:27:29.430Z,3.70
2023-01-28T13:30:21.987Z,3.70
2023-01-28T13:33:02.092Z,3.60
2023-01-28T13:35:31.142Z,3.70
2023-01-28T13:37:59.279Z,3.60
2023-01-28T13:40:31.738Z,3.60
2023-01-28T13:43:25.233Z,3.60
2023-01-28T13:46:09.013Z,3.70
2023-01-28T13:48:51.140Z,3.70
2023-01-28T13:51:31.693Z,3.70
2023-01-28T13:54:30.841Z,3.70
2023-01-28T13:57:00.970Z,3.70
2023-01-28T13:59:36.053Z,3.70
2023-01-28T14:02:31.954Z,3.80
2023-01-28T14:05:40.023Z,3.80
2023-01-28T14:08:31.396Z,3.80
2023-01-28T14:11:24.780Z,3.80
2023-01-28T14:14:06.739Z,3.80
2023-01-28T14:16:55.932Z,3.70
2023-01-28T14:19:33.637Z,3.70
2023-01-28T14:22:10.051Z,3.70
2023-01-28T14:24:38.626Z,3.70
2023-01-28T14:27:14.040Z,3.70
2023-01-28T14:30:18.656Z,3.70
2023-01-28T14:32:52.291Z,3.70
2023-01-28T14:35:24.812Z,3.80
2023-01-28T14:37:52.310Z,3.70
2023-01-28T14:40:23.408Z,3.70
2023-01-28T14:42:56.878Z,3.70
2023-01-28T14:45:53.593Z,3.70
2023-01-28T14:48:48.447Z,3.70
2023-01-28T14:51:33.666Z,3.70
2023-01-28T14:54:18.161Z,3.60
2023-01-28T14:57:09.504Z,3.60
2023-01-28T14:59:55.048Z,3.60
2023-01-28T15:02:27.697Z,3.50
2023-01-28T15:04:55.484Z,3.50
2023-01-28T15:07:22.309Z,3.50
2023-01-28T15:10:01.388Z,3.50
2023-01-28T15:12:32.811Z,3.50
2023-01-28T15:15:21.636Z,3.50
2023-01-28T15:17:49.178Z,3.50
2023-01-28T15:20:22.845Z,3.50
2023-01-28T15:22:51.783Z,3.40
2023-01-28T15:25:21.372Z,3.40
2023-01-28T15:27:52.308Z,3.40
2023-01-28T15:30:31.187Z,3.40
2023-01-28T15:33:05.363Z,3.40
2023-01-28T15:35:46.149Z,3.40
2023-01-28T15:38:13.299Z,3.30
2023-01-28T15:40:46.821Z,3.30
2023-01-28T15:43:29.301Z,3.30
2023-01-28T15:45:58.705Z,3.30
2023-01-28T15:48:31.986Z,3.30
2023-01-28T15:51:03.307Z,3.30
2023-01-28T15:53:41.556Z,3.30
2023-01-28T15:56:14.870Z,3.30
2023-01-28T15:58:46.052Z,3.30
2023-01-28T16:01:15.814Z,3.20
2023-01-28T16:03:44.976Z,3.20
2023-01-28T16:06:22.001Z,3.20
2023-01-28T16:08:58.936Z,3.10
2023-01-28T16:11:35.590Z,3.10
2023-01-28T16:14:02.625Z,3.10
2023-01-28T16:16:34.796Z,3.10
2023-01-28T16:19:06.969Z,3.10
2023-01-28T16:21:47.810Z,3.10
2023-01-28T16:24:30.176Z,3.10
2023-01-28T16:27:03.422Z,3.10
2023-01-28T16:29:31.397Z,3.10
2023-01-28T16:32:03.683Z,3.10
2023-01-28T16:34:30.841Z,3.10
2023-01-28T16:37:03.992Z,3.00
2023-01-28T16:39:30.926Z,3.00
2023-01-28T16:41:59.156Z,3.00
2023-01-28T16:44:26.121Z,3.00
2023-01-28T16:46:53.164Z,3.00
2023-01-28T16:49:20.062Z,3.00
2023-01-28T16:51:47.893Z,3.00
2023-01-28T16:54:18.778Z,3.00
2023-01-28T16:56:46.814Z,3.00
2023-01-28T16:59:15.808Z,3.00
2023-01-28T17:01:45.881Z,2.90
2023-01-28T17:04:13.506Z,2.90
2023-01-28T17:06:45.095Z,2.90
2023-01-28T17:09:14.048Z,2.90
2023-01-28T17:11:41.011Z,2.90
2023-01-28T17:14:08.786Z,2.90
2023-01-28T17:16:36.010Z,2.90
2023-01-28T17:19:03.279Z,2.90
2023-01-28T17:21:30.147Z,2.90
2023-01-28T17:23:58.372Z,2.90
2023-01-28T17:26:26.737Z,2.90
2023-01-28T17:28:54.356Z,2.90
2023-01-28T17:31:22.025Z,2.90
2023-01-28T17:33:57.403Z,2.90
2023-01-28T17:36:25.594Z,2.90
2023-01-28T17:38:53.292Z,2.90
2023-01-28T17:41:22.815Z,2.90
2023-01-28T17:43:55.980Z,2.90
2023-01-28T17:46:26.500Z,2.90
2023-01-28T17:48:53.748Z,2.90
2023-01-28T17:51:25.263Z,2.90
2023-01-28T17:53:54.664Z,2.90
2023-01-28T17:56:25.735Z,2.90
2023-01-28T17:58:57.896Z,2.80
2023-01-28T18:01:26.423Z,2.90
2023-01-28T18:03:53.959Z,2.80
2023-01-28T18:06:23.572Z,2.80
2023-01-28T18:08:50.745Z,2.80
2023-01-28T18:11:21.506Z,2.80
2023-01-28T18:13:48.379Z,2.70
2023-01-28T18:16:18.231Z,2.70
2023-01-28T18:18:45.672Z,2.70
2023-01-28T18:21:46.380Z,2.70
2023-01-28T18:24:13.613Z,2.60
2023-01-28T18:26:42.723Z,2.60
2023-01-28T18:29:09.623Z,2.50
2023-01-28T18:31:38.922Z,2.50
2023-01-28T18:34:06.047Z,2.50
2023-01-28T18:36:32.818Z,2.40
2023-01-28T18:38:59.597Z,2.40
2023-01-28T18:41:28.487Z,2.40
2023-01-28T18:43:55.224Z,2.40
2023-01-28T18:46:22.028Z,2.40
2023-01-28T18:48:50.778Z,2.40
2023-01-28T18:51:29.444Z,2.40
2023-01-28T18:54:00.687Z,2.30
2023-01-28T18:56:28.278Z,2.30
2023-01-28T18:58:56.111Z,2.30
2023-01-28T19:01:22.895Z,2.30
2023-01-28T19:03:49.647Z,2.30
2023-01-28T19:06:16.758Z,2.30
2023-01-28T19:08:51.031Z,2.30
2023-01-28T19:11:17.812Z,2.30
2023-01-28T19:13:44.528Z,2.30
2023-01-28T19:16:11.303Z,2.30
2023-01-28T19:18:38.526Z,2.30
2023-01-28T19:21:07.749Z,2.30
2023-01-28T19:23:49.162Z,2.30
2023-01-28T19:26:21.089Z,2.20
2023-01-28T19:28:49.259Z,2.20
2023-01-28T19:31:18.507Z,2.30
2023-01-28T19:33:45.924Z,2.30
2023-01-28T19:36:15.145Z,2.30
2023-01-28T19:38:44.958Z,2.20
2023-01-28T19:41:16.963Z,2.30
2023-01-28T19:43:46.204Z,2.30
2023-01-28T19:46:14.714Z,2.20
2023-01-28T19:48:43.855Z,2.20
2023-01-28T19:51:11.236Z,2.20
2023-01-28T19:53:43.468Z,2.10
2023-01-28T19:56:15.141Z,2.10
2023-01-28T19:58:42.812Z,2.10
2023-01-28T20:01:11.603Z,2.10
2023-01-28T20:03:38.715Z,2.10
2023-01-28T20:06:11.434Z,2.10
2023-01-28T20:08:38.232Z,2.10
2023-01-28T20:11:12.184Z,2.10
2023-01-28T20:13:39.693Z,2.10
2023-01-28T20:16:10.075Z,2.10
2023-01-28T20:18:37.047Z,2.10
2023-01-28T20:21:05.379Z,2.10
2023-01-28T20:23:32.793Z,2.10
2023-01-28T20:26:01.067Z,2.00
2023-01-28T20:28:28.137Z,2.00
2023-01-28T20:30:57.300Z,2.00
2023-01-28T20:33:24.083Z,2.00
2023-01-28T20:35:50.885Z,2.00
2023-01-28T20:38:17.604Z,1.90
2023-01-28T20:40:44.504Z,1.90
2023-01-28T20:43:13.528Z,1.90
2023-01-28T20:45:40.230Z,1.90
2023-01-28T20:48:09.501Z,1.80
2023-01-28T20:50:36.237Z,1.80
2023-01-28T20:53:05.594Z,1.80
2023-01-28T20:55:34.726Z,1.80
2023-01-28T20:58:03.767Z,1.80
2023-01-28T21:00:30.483Z,1.80
2023-01-28T21:02:58.231Z,1.80
2023-01-28T21:05:25.039Z,1.80
2023-01-28T21:07:51.863Z,1.80
2023-01-28T21:10:18.867Z,1.80
2023-01-28T21:12:45.821Z,1.80
2023-01-28T21:15:12.563Z,1.80
2023-01-28T21:17:41.896Z,1.80
2023-01-28T21:20:11.346Z,1.70
2023-01-28T21:22:40.393Z,1.70
2023-01-28T21:25:07.309Z,1.70
2023-01-28T21:27:35.667Z,1.60
2023-01-28T21:30:02.452Z,1.60
2023-01-28T21:32:31.814Z,1.60
2023-01-28T21:34:58.591Z,1.60
2023-01-28T21:37:26.025Z,1.60
2023-01-28T21:39:52.739Z,1.60
2023-01-28T21:42:19.477Z,1.50
2023-01-28T21:44:47.320Z,1.50
2023-01-28T21:47:16.666Z,1.50
2023-01-28T21:49:43.434Z,1.50
2023-01-28T21:52:13.735Z,1.40
2023-01-28T21:54:42.734Z,1.40
2023-01-28T21:57:09.456Z,1.40
2023-01-28T21:59:38.154Z,1.40
2023-01-28T22:02:12.347Z,1.40
2023-01-28T22:04:40.382Z,1.30
2023-01-28T22:07:08.360Z,1.30
2023-01-28T22:09:35.220Z,1.40
2023-01-28T22:12:03.600Z,1.40
2023-01-28T22:14:30.588Z,1.40
2023-01-28T22:16:59.906Z,1.40
2023-01-28T22:19:26.788Z,1.40
2023-01-28T22:21:53.504Z,1.40
2023-01-28T22:24:22.526Z,1.40
2023-01-28T22:26:49.334Z,1.40
2023-01-28T22:29:16.696Z,1.30
2023-01-28T22:31:47.294Z,1.30
2023-01-28T22:34:14.516Z,1.30
2023-01-28T22:36:41.508Z,1.30
2023-01-28T22:39:11.205Z,1.30
2023-01-28T22:41:40.955Z,1.30
2023-01-28T22:44:07.689Z,1.30
2023-01-28T22:46:36.637Z,1.30
2023-01-28T22:49:03.451Z,1.30
2023-01-28T22:51:31.466Z,1.20
2023-01-28T22:53:58.298Z,1.20
2023-01-28T22:56:26.470Z,1.20
2023-01-28T22:58:57.281Z,1.20
2023-01-28T23:01:24.488Z,1.30
2023-01-28T23:03:51.921Z,1.20
2023-01-28T23:06:19.817Z,1.20
2023-01-28T23:08:49.275Z,1.20
2023-01-28T23:11:22.854Z,1.20
2023-01-28T23:14:08.293Z,1.30
2023-01-28T23:16:56.860Z,1.30
2023-01-28T23:19:42.335Z,1.30
2023-01-28T23:22:31.105Z,1.30
2023-01-28T23:24:58.753Z,1.30
2023-01-28T23:27:25.696Z,1.30
2023-01-28T23:29:52.467Z,1.30
2023-01-28T23:32:20.149Z,1.30
2023-01-28T23:34:46.998Z,1.30
2023-01-28T23:37:14.013Z,1.30
2023-01-28T23:39:41.048Z,1.40
2023-01-28T23:42:18.761Z,1.30
2023-01-28T23:44:45.758Z,1.40
2023-01-28T23:47:12.868Z,1.30
2023-01-28T23:49:41.804Z,1.40
2023-01-28T23:52:08.624Z,1.40
2023-01-28T23:54:37.848Z,1.30
2023-01-28T23:57:04.837Z,1.40
2023-01-28T23:59:31.592Z,1.40
